sensor_id;sensor_type;location;lat;lon;timestamp;temperature;humidity
32502;DHT22;18952;52.516;13.460;2023-08-08T00:02:26;13.50;99.90
32502;DHT22;18952;52.516;13.460;2023-08-08T00:04:53;13.50;99.90
32502;DHT22;18952;52.516;13.460;2023-08-08T00:07:20;13.40;99.90
32502;DHT22;18952;52.516;13.460;2023-08-08T00:09:46;13.40;99.90
32502;DHT22;18952;52.516;13.460;2023-08-08T00:12:13;13.30;99.90
32502;DHT22;18952;52.516;13.460;2023-08-08T00:14:40;13.30;99.90
32502;DHT22;18952;52.516;13.460;2023-08-08T00:17:07;13.30;99.90
32502;DHT22;18952;52.516;13.460;2023-08-08T00:19:33;13.30;99.90
32502;DHT22;18952;52.516;13.460;2023-08-08T00:22:00;13.20;99.90
32502;DHT22;18952;52.516;13.460;2023-08-08T00:24:27;13.20;99.90
32502;DHT22;18952;52.516;13.460;2023-08-08T00:26:54;13.20;99.90
32502;DHT22;18952;52.516;13.460;2023-08-08T00:29:20;13.20;99.90
32502;DHT22;18952;52.516;13.460;2023-08-08T00:31:47;13.10;99.90
32502;DHT22;18952;52.516;13.460;2023-08-08T00:34:14;13.10;99.90
32502;DHT22;18952;52.516;13.460;2023-08-08T00:36:41;13.00;99.90
32502;DHT22;18952;52.516;13.460;2023-08-08T00:39:08;13.00;99.90
32502;DHT22;18952;52.516;13.460;2023-08-08T00:41:34;13.00;99.90
32502;DHT22;18952;52.516;13.460;2023-08-08T00:44:01;13.00;99.90
32502;DHT22;18952;52.516;13.460;2023-08-08T00:46:28;13.00;99.90
32502;DHT22;18952;52.516;13.460;2023-08-08T00:48:55;13.00;99.90
32502;DHT22;18952;52.516;13.460;2023-08-08T00:51:22;12.90;99.90
32502;DHT22;18952;52.516;13.460;2023-08-08T00:53:50;12.90;99.90
32502;DHT22;18952;52.516;13.460;2023-08-08T00:56:17;12.90;99.90
32502;DHT22;18952;52.516;13.460;2023-08-08T00:58:44;12.90;99.90
32502;DHT22;18952;52.516;13.460;2023-08-08T01:01:12;12.90;99.90
32502;DHT22;18952;52.516;13.460;2023-08-08T01:03:39;12.80;99.90
32502;DHT22;18952;52.516;13.460;2023-08-08T01:06:31;12.80;99.90
32502;DHT22;18952;52.516;13.460;2023-08-08T01:09:07;12.80;99.90
32502;DHT22;18952;52.516;13.460;2023-08-08T01:11:36;12.80;99.90
32502;DHT22;18952;52.516;13.460;2023-08-08T01:14:05;12.70;99.90
32502;DHT22;18952;52.516;13.460;2023-08-08T01:16:33;12.70;99.90
32502;DHT22;18952;52.516;13.460;2023-08-08T01:19:00;12.70;99.90
32502;DHT22;18952;52.516;13.460;2023-08-08T01:21:28;12.70;99.90
32502;DHT22;18952;52.516;13.460;2023-08-08T01:23:56;12.60;99.90
32502;DHT22;18952;52.516;13.460;2023-08-08T01:26:27;12.60;99.90
32502;DHT22;18952;52.516;13.460;2023-08-08T01:28:55;12.60;99.90
32502;DHT22;18952;52.516;13.460;2023-08-08T01:31:21;12.60;99.90
32502;DHT22;18952;52.516;13.460;2023-08-08T01:33:48;12.60;99.90
32502;DHT22;18952;52.516;13.460;2023-08-08T01:36:27;12.50;99.90
32502;DHT22;18952;52.516;13.460;2023-08-08T01:39:00;12.50;99.90
32502;DHT22;18952;52.516;13.460;2023-08-08T01:41:28;12.50;99.90
32502;DHT22;18952;52.516;13.460;2023-08-08T01:43:56;12.50;99.90
32502;DHT22;18952;52.516;13.460;2023-08-08T01:46:23;12.50;99.90
32502;DHT22;18952;52.516;13.460;2023-08-08T01:48:50;12.50;99.90
32502;DHT22;18952;52.516;13.460;2023-08-08T01:51:17;12.40;99.90
32502;DHT22;18952;52.516;13.460;2023-08-08T01:53:44;12.40;99.90
32502;DHT22;18952;52.516;13.460;2023-08-08T01:56:11;12.50;99.90
32502;DHT22;18952;52.516;13.460;2023-08-08T01:58:37;12.50;99.90
32502;DHT22;18952;52.516;13.460;2023-08-08T02:01:04;12.50;99.90
32502;DHT22;18952;52.516;13.460;2023-08-08T02:03:31;12.50;99.90
32502;DHT22;18952;52.516;13.460;2023-08-08T02:05:58;12.50;99.90
32502;DHT22;18952;52.516;13.460;2023-08-08T02:08:25;12.50;99.90
32502;DHT22;18952;52.516;13.460;2023-08-08T02:10:52;12.50;99.90
32502;DHT22;18952;52.516;13.460;2023-08-08T02:13:18;12.50;99.90
32502;DHT22;18952;52.516;13.460;2023-08-08T02:15:45;12.50;99.90
32502;DHT22;18952;52.516;13.460;2023-08-08T02:18:12;12.50;99.90
32502;DHT22;18952;52.516;13.460;2023-08-08T02:20:39;12.50;99.90
32502;DHT22;18952;52.516;13.460;2023-08-08T02:23:06;12.50;99.90
32502;DHT22;18952;52.516;13.460;2023-08-08T02:25:33;12.40;99.90
32502;DHT22;18952;52.516;13.460;2023-08-08T02:27:59;12.50;99.90
32502;DHT22;18952;52.516;13.460;2023-08-08T02:30:26;12.50;99.90
32502;DHT22;18952;52.516;13.460;2023-08-08T02:32:53;12.50;99.90
32502;DHT22;18952;52.516;13.460;2023-08-08T02:35:20;12.40;99.90
32502;DHT22;18952;52.516;13.460;2023-08-08T02:37:47;12.50;99.90
32502;DHT22;18952;52.516;13.460;2023-08-08T02:40:14;12.50;99.90
32502;DHT22;18952;52.516;13.460;2023-08-08T02:42:40;12.40;99.90
32502;DHT22;18952;52.516;13.460;2023-08-08T02:45:07;12.50;99.90
32502;DHT22;18952;52.516;13.460;2023-08-08T02:47:34;12.40;99.90
32502;DHT22;18952;52.516;13.460;2023-08-08T02:50:01;12.40;99.90
32502;DHT22;18952;52.516;13.460;2023-08-08T02:52:28;12.30;99.90
32502;DHT22;18952;52.516;13.460;2023-08-08T02:54:55;12.30;99.90
32502;DHT22;18952;52.516;13.460;2023-08-08T02:57:21;12.30;99.90
32502;DHT22;18952;52.516;13.460;2023-08-08T02:59:48;12.20;99.90
32502;DHT22;18952;52.516;13.460;2023-08-08T03:02:15;12.20;99.90
32502;DHT22;18952;52.516;13.460;2023-08-08T03:04:42;12.20;99.90
32502;DHT22;18952;52.516;13.460;2023-08-08T03:07:09;12.20;99.90
32502;DHT22;18952;52.516;13.460;2023-08-08T03:09:35;12.20;99.90
32502;DHT22;18952;52.516;13.460;2023-08-08T03:12:02;12.20;99.90
32502;DHT22;18952;52.516;13.460;2023-08-08T03:14:29;12.10;99.90
32502;DHT22;18952;52.516;13.460;2023-08-08T03:16:56;12.10;99.90
32502;DHT22;18952;52.516;13.460;2023-08-08T03:19:25;12.10;99.90
32502;DHT22;18952;52.516;13.460;2023-08-08T03:21:52;12.10;99.90
32502;DHT22;18952;52.516;13.460;2023-08-08T03:24:19;12.00;99.90
32502;DHT22;18952;52.516;13.460;2023-08-08T03:26:46;12.10;99.90
32502;DHT22;18952;52.516;13.460;2023-08-08T03:29:12;12.10;99.90
32502;DHT22;18952;52.516;13.460;2023-08-08T03:31:39;12.10;99.90
32502;DHT22;18952;52.516;13.460;2023-08-08T03:34:06;12.10;99.90
32502;DHT22;18952;52.516;13.460;2023-08-08T03:36:33;12.00;99.90
32502;DHT22;18952;52.516;13.460;2023-08-08T03:39:00;12.10;99.90
32502;DHT22;18952;52.516;13.460;2023-08-08T03:41:27;12.10;99.90
32502;DHT22;18952;52.516;13.460;2023-08-08T03:43:54;12.10;99.90
32502;DHT22;18952;52.516;13.460;2023-08-08T03:46:20;12.10;99.90
32502;DHT22;18952;52.516;13.460;2023-08-08T03:48:47;12.00;99.90
32502;DHT22;18952;52.516;13.460;2023-08-08T03:51:15;12.10;99.90
32502;DHT22;18952;52.516;13.460;2023-08-08T03:53:42;12.10;99.90
32502;DHT22;18952;52.516;13.460;2023-08-08T03:56:09;12.10;99.90
32502;DHT22;18952;52.516;13.460;2023-08-08T03:58:35;12.20;99.90
32502;DHT22;18952;52.516;13.460;2023-08-08T04:01:02;12.20;99.90
32502;DHT22;18952;52.516;13.460;2023-08-08T04:03:29;12.20;99.90
32502;DHT22;18952;52.516;13.460;2023-08-08T04:05:56;12.30;99.90
32502;DHT22;18952;52.516;13.460;2023-08-08T04:08:23;12.30;99.90
32502;DHT22;18952;52.516;13.460;2023-08-08T04:10:50;12.40;99.90
32502;DHT22;18952;52.516;13.460;2023-08-08T04:13:16;12.40;99.90
32502;DHT22;18952;52.516;13.460;2023-08-08T04:15:44;12.30;99.90
32502;DHT22;18952;52.516;13.460;2023-08-08T04:18:11;12.40;99.90
32502;DHT22;18952;52.516;13.460;2023-08-08T04:20:38;12.40;99.90
32502;DHT22;18952;52.516;13.460;2023-08-08T04:23:05;12.50;99.90
32502;DHT22;18952;52.516;13.460;2023-08-08T04:25:31;12.50;99.90
32502;DHT22;18952;52.516;13.460;2023-08-08T04:27:58;12.50;99.90
32502;DHT22;18952;52.516;13.460;2023-08-08T04:30:25;12.50;99.90
32502;DHT22;18952;52.516;13.460;2023-08-08T04:32:52;12.50;99.90
32502;DHT22;18952;52.516;13.460;2023-08-08T04:35:19;12.40;99.90
32502;DHT22;18952;52.516;13.460;2023-08-08T04:37:46;12.40;99.90
32502;DHT22;18952;52.516;13.460;2023-08-08T04:40:12;12.40;99.90
32502;DHT22;18952;52.516;13.460;2023-08-08T04:42:40;12.40;99.90
32502;DHT22;18952;52.516;13.460;2023-08-08T04:45:07;12.40;99.90
32502;DHT22;18952;52.516;13.460;2023-08-08T04:47:34;12.50;99.90
32502;DHT22;18952;52.516;13.460;2023-08-08T04:50:00;12.50;99.90
32502;DHT22;18952;52.516;13.460;2023-08-08T04:52:27;12.50;99.90
32502;DHT22;18952;52.516;13.460;2023-08-08T04:54:54;12.50;99.90
32502;DHT22;18952;52.516;13.460;2023-08-08T04:57:21;12.60;99.90
32502;DHT22;18952;52.516;13.460;2023-08-08T04:59:48;12.60;99.90
32502;DHT22;18952;52.516;13.460;2023-08-08T05:02:14;12.60;99.90
32502;DHT22;18952;52.516;13.460;2023-08-08T05:04:41;12.60;99.90
32502;DHT22;18952;52.516;13.460;2023-08-08T05:07:08;12.60;99.90
32502;DHT22;18952;52.516;13.460;2023-08-08T05:09:35;12.60;99.90
32502;DHT22;18952;52.516;13.460;2023-08-08T05:12:02;12.70;99.90
32502;DHT22;18952;52.516;13.460;2023-08-08T05:14:30;12.70;99.90
32502;DHT22;18952;52.516;13.460;2023-08-08T05:16:57;12.70;99.90
32502;DHT22;18952;52.516;13.460;2023-08-08T05:19:24;12.70;99.90
32502;DHT22;18952;52.516;13.460;2023-08-08T05:21:51;12.70;99.90
32502;DHT22;18952;52.516;13.460;2023-08-08T05:24:18;12.70;99.90
32502;DHT22;18952;52.516;13.460;2023-08-08T05:26:45;12.70;99.90
32502;DHT22;18952;52.516;13.460;2023-08-08T05:29:11;12.60;99.90
32502;DHT22;18952;52.516;13.460;2023-08-08T05:31:38;12.60;99.90
32502;DHT22;18952;52.516;13.460;2023-08-08T05:34:05;12.70;99.90
32502;DHT22;18952;52.516;13.460;2023-08-08T05:36:32;12.70;99.90
32502;DHT22;18952;52.516;13.460;2023-08-08T05:38:59;12.80;99.90
32502;DHT22;18952;52.516;13.460;2023-08-08T05:41:25;12.70;99.90
32502;DHT22;18952;52.516;13.460;2023-08-08T05:43:52;12.80;99.90
32502;DHT22;18952;52.516;13.460;2023-08-08T05:46:19;13.00;99.90
32502;DHT22;18952;52.516;13.460;2023-08-08T05:48:46;13.10;99.90
32502;DHT22;18952;52.516;13.460;2023-08-08T05:51:14;13.20;99.90
32502;DHT22;18952;52.516;13.460;2023-08-08T05:53:41;13.30;99.90
32502;DHT22;18952;52.516;13.460;2023-08-08T05:56:07;13.40;99.90
32502;DHT22;18952;52.516;13.460;2023-08-08T05:58:34;13.40;99.90
32502;DHT22;18952;52.516;13.460;2023-08-08T06:01:01;13.40;99.90
32502;DHT22;18952;52.516;13.460;2023-08-08T06:03:28;13.50;99.90
32502;DHT22;18952;52.516;13.460;2023-08-08T06:05:55;13.50;99.90
32502;DHT22;18952;52.516;13.460;2023-08-08T06:08:21;13.50;99.90
32502;DHT22;18952;52.516;13.460;2023-08-08T06:10:48;13.50;99.90
32502;DHT22;18952;52.516;13.460;2023-08-08T06:13:15;13.60;99.90
32502;DHT22;18952;52.516;13.460;2023-08-08T06:15:44;13.70;99.90
32502;DHT22;18952;52.516;13.460;2023-08-08T06:18:11;13.70;99.90
32502;DHT22;18952;52.516;13.460;2023-08-08T06:20:37;13.70;99.90
32502;DHT22;18952;52.516;13.460;2023-08-08T06:23:04;13.70;99.90
32502;DHT22;18952;52.516;13.460;2023-08-08T06:25:31;13.60;99.90
32502;DHT22;18952;52.516;13.460;2023-08-08T06:27:58;13.70;99.90
32502;DHT22;18952;52.516;13.460;2023-08-08T06:30:25;13.70;99.90
32502;DHT22;18952;52.516;13.460;2023-08-08T06:32:52;13.80;99.90
32502;DHT22;18952;52.516;13.460;2023-08-08T06:35:21;13.90;99.90
32502;DHT22;18952;52.516;13.460;2023-08-08T06:37:48;14.00;99.90
32502;DHT22;18952;52.516;13.460;2023-08-08T06:40:15;14.10;99.90
32502;DHT22;18952;52.516;13.460;2023-08-08T06:42:42;14.20;99.90
32502;DHT22;18952;52.516;13.460;2023-08-08T06:45:09;14.20;99.90
32502;DHT22;18952;52.516;13.460;2023-08-08T06:47:36;14.20;99.90
32502;DHT22;18952;52.516;13.460;2023-08-08T06:50:03;14.20;99.90
32502;DHT22;18952;52.516;13.460;2023-08-08T06:52:30;14.20;99.90
32502;DHT22;18952;52.516;13.460;2023-08-08T06:54:57;14.20;99.90
32502;DHT22;18952;52.516;13.460;2023-08-08T06:57:23;14.20;99.90
32502;DHT22;18952;52.516;13.460;2023-08-08T06:59:50;14.10;99.90
32502;DHT22;18952;52.516;13.460;2023-08-08T07:02:18;14.20;99.90
32502;DHT22;18952;52.516;13.460;2023-08-08T07:04:45;14.30;99.90
32502;DHT22;18952;52.516;13.460;2023-08-08T07:07:12;14.30;99.90
32502;DHT22;18952;52.516;13.460;2023-08-08T07:09:39;14.40;99.90
32502;DHT22;18952;52.516;13.460;2023-08-08T07:12:06;14.40;99.90
32502;DHT22;18952;52.516;13.460;2023-08-08T07:14:33;14.40;99.90
32502;DHT22;18952;52.516;13.460;2023-08-08T07:17:00;14.40;99.90
32502;DHT22;18952;52.516;13.460;2023-08-08T07:19:27;14.50;99.90
32502;DHT22;18952;52.516;13.460;2023-08-08T07:21:53;14.60;99.90
32502;DHT22;18952;52.516;13.460;2023-08-08T07:24:20;14.60;99.90
32502;DHT22;18952;52.516;13.460;2023-08-08T07:26:47;14.70;99.90
32502;DHT22;18952;52.516;13.460;2023-08-08T07:29:14;14.70;99.90
32502;DHT22;18952;52.516;13.460;2023-08-08T07:31:41;14.80;99.90
32502;DHT22;18952;52.516;13.460;2023-08-08T07:34:07;14.90;99.90
32502;DHT22;18952;52.516;13.460;2023-08-08T07:36:34;14.90;99.90
32502;DHT22;18952;52.516;13.460;2023-08-08T07:39:01;14.80;99.90
32502;DHT22;18952;52.516;13.460;2023-08-08T07:41:29;14.80;99.90
32502;DHT22;18952;52.516;13.460;2023-08-08T07:43:57;14.90;99.90
32502;DHT22;18952;52.516;13.460;2023-08-08T07:46:23;14.90;99.90
32502;DHT22;18952;52.516;13.460;2023-08-08T07:48:50;14.90;99.90
32502;DHT22;18952;52.516;13.460;2023-08-08T07:51:17;15.00;99.90
32502;DHT22;18952;52.516;13.460;2023-08-08T07:53:44;15.00;99.90
32502;DHT22;18952;52.516;13.460;2023-08-08T07:56:13;15.20;99.90
32502;DHT22;18952;52.516;13.460;2023-08-08T07:58:39;15.20;99.90
32502;DHT22;18952;52.516;13.460;2023-08-08T08:01:06;15.30;99.90
32502;DHT22;18952;52.516;13.460;2023-08-08T08:03:34;15.30;99.90
32502;DHT22;18952;52.516;13.460;2023-08-08T08:06:01;15.30;99.90
32502;DHT22;18952;52.516;13.460;2023-08-08T08:08:28;15.30;99.90
32502;DHT22;18952;52.516;13.460;2023-08-08T08:10:54;15.20;99.90
32502;DHT22;18952;52.516;13.460;2023-08-08T08:13:21;15.20;99.90
32502;DHT22;18952;52.516;13.460;2023-08-08T08:15:48;15.20;99.90
32502;DHT22;18952;52.516;13.460;2023-08-08T08:18:15;15.30;99.90
32502;DHT22;18952;52.516;13.460;2023-08-08T08:20:43;15.30;99.90
32502;DHT22;18952;52.516;13.460;2023-08-08T08:23:10;15.40;99.90
32502;DHT22;18952;52.516;13.460;2023-08-08T08:25:37;15.50;99.90
32502;DHT22;18952;52.516;13.460;2023-08-08T08:28:04;15.70;99.90
32502;DHT22;18952;52.516;13.460;2023-08-08T08:30:31;15.80;99.90
32502;DHT22;18952;52.516;13.460;2023-08-08T08:32:57;15.90;99.90
32502;DHT22;18952;52.516;13.460;2023-08-08T08:35:24;16.10;99.90
32502;DHT22;18952;52.516;13.460;2023-08-08T08:37:51;16.20;99.90
32502;DHT22;18952;52.516;13.460;2023-08-08T08:40:18;16.20;99.90
32502;DHT22;18952;52.516;13.460;2023-08-08T08:42:45;16.20;99.90
32502;DHT22;18952;52.516;13.460;2023-08-08T08:45:14;16.20;99.90
32502;DHT22;18952;52.516;13.460;2023-08-08T08:47:44;16.10;99.90
32502;DHT22;18952;52.516;13.460;2023-08-08T08:50:15;16.20;99.90
32502;DHT22;18952;52.516;13.460;2023-08-08T08:52:42;16.30;99.90
32502;DHT22;18952;52.516;13.460;2023-08-08T08:55:10;16.20;99.90
32502;DHT22;18952;52.516;13.460;2023-08-08T08:57:36;16.00;99.90
32502;DHT22;18952;52.516;13.460;2023-08-08T09:00:04;16.00;99.90
32502;DHT22;18952;52.516;13.460;2023-08-08T09:02:32;16.00;99.90
32502;DHT22;18952;52.516;13.460;2023-08-08T09:05:00;16.00;99.90
32502;DHT22;18952;52.516;13.460;2023-08-08T09:07:27;16.00;99.90
32502;DHT22;18952;52.516;13.460;2023-08-08T09:09:55;16.00;99.90
32502;DHT22;18952;52.516;13.460;2023-08-08T09:12:23;16.10;99.90
32502;DHT22;18952;52.516;13.460;2023-08-08T09:14:59;16.20;99.90
32502;DHT22;18952;52.516;13.460;2023-08-08T09:17:28;16.40;99.90
32502;DHT22;18952;52.516;13.460;2023-08-08T09:20:14;16.40;99.90
32502;DHT22;18952;52.516;13.460;2023-08-08T09:22:41;16.40;99.90
32502;DHT22;18952;52.516;13.460;2023-08-08T09:25:08;16.50;99.90
32502;DHT22;18952;52.516;13.460;2023-08-08T09:27:35;16.70;99.90
32502;DHT22;18952;52.516;13.460;2023-08-08T09:30:03;16.80;99.90
32502;DHT22;18952;52.516;13.460;2023-08-08T09:32:31;16.70;99.90
32502;DHT22;18952;52.516;13.460;2023-08-08T09:34:58;16.70;99.90
32502;DHT22;18952;52.516;13.460;2023-08-08T09:37:26;16.80;99.90
32502;DHT22;18952;52.516;13.460;2023-08-08T09:39:59;16.90;99.90
32502;DHT22;18952;52.516;13.460;2023-08-08T09:42:26;17.00;99.90
32502;DHT22;18952;52.516;13.460;2023-08-08T09:44:54;16.90;99.90
32502;DHT22;18952;52.516;13.460;2023-08-08T09:47:22;17.00;99.90
32502;DHT22;18952;52.516;13.460;2023-08-08T09:49:49;17.00;99.90
32502;DHT22;18952;52.516;13.460;2023-08-08T09:52:17;17.20;99.90
32502;DHT22;18952;52.516;13.460;2023-08-08T09:54:44;17.40;99.90
32502;DHT22;18952;52.516;13.460;2023-08-08T09:57:11;17.50;99.90
32502;DHT22;18952;52.516;13.460;2023-08-08T09:59:38;17.70;99.90
32502;DHT22;18952;52.516;13.460;2023-08-08T10:02:09;17.60;99.90
32502;DHT22;18952;52.516;13.460;2023-08-08T10:04:40;17.50;99.90
32502;DHT22;18952;52.516;13.460;2023-08-08T10:07:07;17.30;99.90
32502;DHT22;18952;52.516;13.460;2023-08-08T10:09:34;17.10;99.90
32502;DHT22;18952;52.516;13.460;2023-08-08T10:12:01;16.70;99.90
32502;DHT22;18952;52.516;13.460;2023-08-08T10:14:30;15.90;99.90
32502;DHT22;18952;52.516;13.460;2023-08-08T10:16:57;15.10;99.90
32502;DHT22;18952;52.516;13.460;2023-08-08T10:19:24;14.60;99.90
32502;DHT22;18952;52.516;13.460;2023-08-08T10:21:58;14.40;99.90
32502;DHT22;18952;52.516;13.460;2023-08-08T10:24:26;14.40;99.90
32502;DHT22;18952;52.516;13.460;2023-08-08T10:26:57;14.40;99.90
32502;DHT22;18952;52.516;13.460;2023-08-08T10:29:26;14.50;99.90
32502;DHT22;18952;52.516;13.460;2023-08-08T10:34:46;14.70;99.90
32502;DHT22;18952;52.516;13.460;2023-08-08T10:37:17;14.80;99.90
32502;DHT22;18952;52.516;13.460;2023-08-08T10:40:00;14.90;99.90
32502;DHT22;18952;52.516;13.460;2023-08-08T10:42:28;15.00;99.90
32502;DHT22;18952;52.516;13.460;2023-08-08T10:44:57;15.10;99.90
32502;DHT22;18952;52.516;13.460;2023-08-08T10:47:31;15.20;99.90
32502;DHT22;18952;52.516;13.460;2023-08-08T10:50:10;15.50;99.90
32502;DHT22;18952;52.516;13.460;2023-08-08T10:55:27;15.60;99.90
32502;DHT22;18952;52.516;13.460;2023-08-08T10:57:58;15.50;99.90
32502;DHT22;18952;52.516;13.460;2023-08-08T11:00:36;15.30;99.90
32502;DHT22;18952;52.516;13.460;2023-08-08T11:03:03;14.90;99.90
32502;DHT22;18952;52.516;13.460;2023-08-08T11:05:34;14.70;99.90
32502;DHT22;18952;52.516;13.460;2023-08-08T11:08:03;14.50;99.90
32502;DHT22;18952;52.516;13.460;2023-08-08T11:10:35;14.50;99.90
32502;DHT22;18952;52.516;13.460;2023-08-08T11:13:05;14.40;99.90
32502;DHT22;18952;52.516;13.460;2023-08-08T11:15:33;14.40;99.90
32502;DHT22;18952;52.516;13.460;2023-08-08T11:18:01;14.40;99.90
32502;DHT22;18952;52.516;13.460;2023-08-08T11:20:32;14.40;99.90
32502;DHT22;18952;52.516;13.460;2023-08-08T11:23:00;14.50;99.90
32502;DHT22;18952;52.516;13.460;2023-08-08T11:25:28;14.60;99.90
32502;DHT22;18952;52.516;13.460;2023-08-08T11:27:57;14.80;99.90
32502;DHT22;18952;52.516;13.460;2023-08-08T11:30:27;15.00;99.90
32502;DHT22;18952;52.516;13.460;2023-08-08T11:32:54;15.20;99.90
32502;DHT22;18952;52.516;13.460;2023-08-08T11:35:24;15.20;99.90
32502;DHT22;18952;52.516;13.460;2023-08-08T11:37:53;14.90;99.90
32502;DHT22;18952;52.516;13.460;2023-08-08T11:40:21;14.70;99.90
32502;DHT22;18952;52.516;13.460;2023-08-08T11:42:48;14.60;99.90
32502;DHT22;18952;52.516;13.460;2023-08-08T11:45:16;14.50;99.90
32502;DHT22;18952;52.516;13.460;2023-08-08T11:47:43;14.40;99.90
32502;DHT22;18952;52.516;13.460;2023-08-08T11:50:11;14.40;99.90
32502;DHT22;18952;52.516;13.460;2023-08-08T11:52:44;14.40;99.90
32502;DHT22;18952;52.516;13.460;2023-08-08T11:55:12;14.50;99.90
32502;DHT22;18952;52.516;13.460;2023-08-08T11:57:40;14.50;99.90
32502;DHT22;18952;52.516;13.460;2023-08-08T12:00:08;14.70;99.90
32502;DHT22;18952;52.516;13.460;2023-08-08T12:02:35;14.90;99.90
32502;DHT22;18952;52.516;13.460;2023-08-08T12:05:06;15.10;99.90
32502;DHT22;18952;52.516;13.460;2023-08-08T12:07:33;15.00;99.90
32502;DHT22;18952;52.516;13.460;2023-08-08T12:10:00;15.10;99.90
32502;DHT22;18952;52.516;13.460;2023-08-08T12:12:27;15.30;99.90
32502;DHT22;18952;52.516;13.460;2023-08-08T12:14:54;15.50;99.90
32502;DHT22;18952;52.516;13.460;2023-08-08T12:17:42;15.70;99.90
32502;DHT22;18952;52.516;13.460;2023-08-08T12:20:10;16.00;99.90
32502;DHT22;18952;52.516;13.460;2023-08-08T12:22:37;16.40;99.90
32502;DHT22;18952;52.516;13.460;2023-08-08T12:25:04;16.70;99.90
32502;DHT22;18952;52.516;13.460;2023-08-08T12:27:31;16.80;99.90
32502;DHT22;18952;52.516;13.460;2023-08-08T12:29:58;17.00;99.90
32502;DHT22;18952;52.516;13.460;2023-08-08T12:32:26;17.30;99.90
32502;DHT22;18952;52.516;13.460;2023-08-08T12:34:54;17.50;99.90
32502;DHT22;18952;52.516;13.460;2023-08-08T12:37:22;17.70;99.90
32502;DHT22;18952;52.516;13.460;2023-08-08T12:39:49;17.90;99.90
32502;DHT22;18952;52.516;13.460;2023-08-08T12:42:16;17.90;99.90
32502;DHT22;18952;52.516;13.460;2023-08-08T12:44:43;17.70;99.90
32502;DHT22;18952;52.516;13.460;2023-08-08T12:47:11;17.50;99.90
32502;DHT22;18952;52.516;13.460;2023-08-08T12:49:41;17.40;99.90
32502;DHT22;18952;52.516;13.460;2023-08-08T12:52:10;17.40;99.90
32502;DHT22;18952;52.516;13.460;2023-08-08T12:54:37;17.70;99.90
32502;DHT22;18952;52.516;13.460;2023-08-08T12:57:04;18.20;99.90
32502;DHT22;18952;52.516;13.460;2023-08-08T12:59:31;18.50;99.90
32502;DHT22;18952;52.516;13.460;2023-08-08T13:01:57;18.70;99.90
32502;DHT22;18952;52.516;13.460;2023-08-08T13:04:25;18.60;99.90
32502;DHT22;18952;52.516;13.460;2023-08-08T13:06:52;18.40;99.90
32502;DHT22;18952;52.516;13.460;2023-08-08T13:09:19;18.20;99.90
32502;DHT22;18952;52.516;13.460;2023-08-08T13:11:46;18.10;99.90
32502;DHT22;18952;52.516;13.460;2023-08-08T13:14:12;18.10;99.90
32502;DHT22;18952;52.516;13.460;2023-08-08T13:16:39;18.30;99.90
32502;DHT22;18952;52.516;13.460;2023-08-08T13:19:06;18.60;99.90
32502;DHT22;18952;52.516;13.460;2023-08-08T13:21:33;19.00;99.90
32502;DHT22;18952;52.516;13.460;2023-08-08T13:24:00;19.10;99.90
32502;DHT22;18952;52.516;13.460;2023-08-08T13:26:27;19.20;99.90
32502;DHT22;18952;52.516;13.460;2023-08-08T13:28:54;19.50;99.90
32502;DHT22;18952;52.516;13.460;2023-08-08T13:31:21;19.80;99.90
32502;DHT22;18952;52.516;13.460;2023-08-08T13:33:47;20.20;99.90
32502;DHT22;18952;52.516;13.460;2023-08-08T13:36:14;20.10;99.90
32502;DHT22;18952;52.516;13.460;2023-08-08T13:38:41;20.00;99.90
32502;DHT22;18952;52.516;13.460;2023-08-08T13:41:08;19.70;99.90
32502;DHT22;18952;52.516;13.460;2023-08-08T13:43:35;19.30;99.90
32502;DHT22;18952;52.516;13.460;2023-08-08T13:46:02;18.80;99.90
32502;DHT22;18952;52.516;13.460;2023-08-08T13:48:28;18.20;99.90
32502;DHT22;18952;52.516;13.460;2023-08-08T13:50:55;16.10;99.90
32502;DHT22;18952;52.516;13.460;2023-08-08T13:53:22;14.30;99.90
32502;DHT22;18952;52.516;13.460;2023-08-08T13:55:49;13.40;99.90
32502;DHT22;18952;52.516;13.460;2023-08-08T13:58:17;12.90;99.90
32502;DHT22;18952;52.516;13.460;2023-08-08T14:00:44;12.60;99.90
32502;DHT22;18952;52.516;13.460;2023-08-08T14:03:10;12.70;99.90
32502;DHT22;18952;52.516;13.460;2023-08-08T14:05:39;12.70;99.90
32502;DHT22;18952;52.516;13.460;2023-08-08T14:08:06;12.80;99.90
32502;DHT22;18952;52.516;13.460;2023-08-08T14:10:33;12.80;99.90
32502;DHT22;18952;52.516;13.460;2023-08-08T14:13:00;13.10;99.90
32502;DHT22;18952;52.516;13.460;2023-08-08T14:15:27;13.50;99.90
32502;DHT22;18952;52.516;13.460;2023-08-08T14:17:54;14.00;99.90
32502;DHT22;18952;52.516;13.460;2023-08-08T14:20:20;14.40;99.90
32502;DHT22;18952;52.516;13.460;2023-08-08T14:22:47;14.70;99.90
32502;DHT22;18952;52.516;13.460;2023-08-08T14:25:14;15.00;99.90
32502;DHT22;18952;52.516;13.460;2023-08-08T14:27:41;15.10;99.90
32502;DHT22;18952;52.516;13.460;2023-08-08T14:30:08;15.30;99.90
32502;DHT22;18952;52.516;13.460;2023-08-08T14:32:35;15.50;99.90
32502;DHT22;18952;52.516;13.460;2023-08-08T14:35:03;15.90;99.90
32502;DHT22;18952;52.516;13.460;2023-08-08T14:37:31;16.00;99.90
32502;DHT22;18952;52.516;13.460;2023-08-08T14:39:57;16.40;99.90
32502;DHT22;18952;52.516;13.460;2023-08-08T14:42:24;16.70;99.90
32502;DHT22;18952;52.516;13.460;2023-08-08T14:44:51;17.00;99.90
32502;DHT22;18952;52.516;13.460;2023-08-08T14:47:18;17.20;99.90
32502;DHT22;18952;52.516;13.460;2023-08-08T14:49:45;17.50;99.90
32502;DHT22;18952;52.516;13.460;2023-08-08T14:52:11;17.80;99.90
32502;DHT22;18952;52.516;13.460;2023-08-08T14:54:38;18.00;99.90
32502;DHT22;18952;52.516;13.460;2023-08-08T14:57:05;18.10;99.90
32502;DHT22;18952;52.516;13.460;2023-08-08T14:59:32;18.20;99.90
32502;DHT22;18952;52.516;13.460;2023-08-08T15:01:59;18.40;99.90
32502;DHT22;18952;52.516;13.460;2023-08-08T15:04:26;18.50;99.90
32502;DHT22;18952;52.516;13.460;2023-08-08T15:06:53;18.70;99.90
32502;DHT22;18952;52.516;13.460;2023-08-08T15:09:20;18.90;99.90
32502;DHT22;18952;52.516;13.460;2023-08-08T15:11:46;18.80;99.90
32502;DHT22;18952;52.516;13.460;2023-08-08T15:14:13;18.40;99.90
32502;DHT22;18952;52.516;13.460;2023-08-08T15:16:40;18.10;99.90
32502;DHT22;18952;52.516;13.460;2023-08-08T15:19:07;17.90;99.90
32502;DHT22;18952;52.516;13.460;2023-08-08T15:21:34;17.70;99.90
32502;DHT22;18952;52.516;13.460;2023-08-08T15:24:00;17.60;99.90